createdAt,value
2022-12-03T00:00:12.215Z,24.27
2022-12-03T00:02:40.651Z,28.67
2022-12-03T00:05:08.702Z,31.38
2022-12-03T00:07:36.247Z,28.15
2022-12-03T00:10:04.821Z,26.27
2022-12-03T00:12:32.289Z,24.67
2022-12-03T00:14:59.663Z,26.60
2022-12-03T00:17:27.143Z,25.85
2022-12-03T00:19:54.578Z,24.02
2022-12-03T00:22:22.140Z,31.30
2022-12-03T00:24:49.612Z,24.92
2022-12-03T00:27:17.104Z,27.77
2022-12-03T00:29:44.491Z,23.95
2022-12-03T00:32:12.258Z,26.75
2022-12-03T00:34:39.733Z,29.25
2022-12-03T00:37:07.279Z,26.30
2022-12-03T00:39:34.711Z,26.23
2022-12-03T00:42:02.225Z,24.17
2022-12-03T00:44:29.724Z,25.73
2022-12-03T00:46:57.268Z,23.80
2022-12-03T00:49:24.730Z,22.92
2022-12-03T00:51:52.511Z,27.98
2022-12-03T00:54:20.069Z,24.40
2022-12-03T00:56:47.537Z,25.55
2022-12-03T00:59:14.996Z,23.30
2022-12-03T01:01:42.604Z,24.73
2022-12-03T01:04:10.367Z,30.95
2022-12-03T01:06:37.885Z,26.20
2022-12-03T01:09:05.429Z,24.42
2022-12-03T01:11:38.814Z,25.60
2022-12-03T01:14:07.159Z,28.15
2022-12-03T01:16:35.082Z,26.25
2022-12-03T01:19:02.773Z,21.45
2022-12-03T01:21:30.182Z,22.60
2022-12-03T01:23:58.042Z,24.85
2022-12-03T01:26:25.751Z,19.95
2022-12-03T01:28:53.713Z,22.75
2022-12-03T01:31:40.239Z,24.50
2022-12-03T01:34:07.746Z,22.33
2022-12-03T01:36:35.294Z,24.63
2022-12-03T01:39:03.442Z,21.45
2022-12-03T01:41:31.524Z,20.75
2022-12-03T01:43:59.484Z,22.85
2022-12-03T01:46:29.298Z,20.02
2022-12-03T01:48:56.967Z,20.50
2022-12-03T01:51:24.542Z,20.83
2022-12-03T01:53:52.112Z,22.45
2022-12-03T01:56:19.599Z,20.85
2022-12-03T01:58:47.591Z,17.05
2022-12-03T02:01:16.760Z,16.45
2022-12-03T02:03:45.523Z,19.60
2022-12-03T02:06:16.605Z,19.63
2022-12-03T02:08:44.612Z,21.30
2022-12-03T02:11:11.951Z,17.50
2022-12-03T02:13:39.505Z,18.00
2022-12-03T02:16:07.275Z,18.10
2022-12-03T02:18:34.915Z,18.63
2022-12-03T02:21:07.527Z,18.42
2022-12-03T02:23:47.360Z,15.95
2022-12-03T02:26:14.936Z,21.27
2022-12-03T02:28:42.634Z,17.08
2022-12-03T02:31:10.360Z,24.13
2022-12-03T02:33:39.042Z,21.67
2022-12-03T02:36:21.984Z,20.48
2022-12-03T02:38:50.019Z,21.98
2022-12-03T02:41:38.416Z,22.48
2022-12-03T02:44:07.324Z,16.08
2022-12-03T02:46:34.826Z,21.92
2022-12-03T02:49:02.672Z,16.35
2022-12-03T02:51:30.003Z,18.85
2022-12-03T02:53:57.725Z,18.63
2022-12-03T02:56:27.326Z,19.05
2022-12-03T02:58:59.742Z,16.10
2022-12-03T03:01:27.534Z,19.20
2022-12-03T03:03:55.545Z,17.30
2022-12-03T03:06:23.301Z,17.40
2022-12-03T03:08:50.778Z,15.50
2022-12-03T03:11:18.057Z,17.75
2022-12-03T03:13:45.317Z,17.02
2022-12-03T03:16:12.914Z,18.98
2022-12-03T03:18:40.654Z,19.60
2022-12-03T03:21:08.381Z,19.52
2022-12-03T03:23:35.677Z,17.20
2022-12-03T03:26:07.842Z,19.42
2022-12-03T03:31:03.198Z,17.52
2022-12-03T03:33:30.959Z,15.10
2022-12-03T03:36:00.347Z,18.10
2022-12-03T03:38:28.002Z,16.98
2022-12-03T03:40:55.442Z,18.55
2022-12-03T03:43:23.073Z,15.52
2022-12-03T03:45:51.424Z,15.88
2022-12-03T03:48:18.992Z,20.13
2022-12-03T03:50:46.479Z,18.92
2022-12-03T03:53:14.165Z,16.85
2022-12-03T03:55:41.747Z,17.27
2022-12-03T03:58:09.214Z,18.48
2022-12-03T04:00:36.949Z,17.65
2022-12-03T04:03:05.243Z,17.30
2022-12-03T04:05:32.585Z,19.23
2022-12-03T04:07:59.979Z,17.83
2022-12-03T04:10:45.855Z,14.60
2022-12-03T04:13:13.185Z,18.80
2022-12-03T04:15:40.443Z,16.70
2022-12-03T04:18:26.296Z,15.00
2022-12-03T04:21:13.609Z,16.58
2022-12-03T04:23:40.914Z,18.83
2022-12-03T04:26:26.739Z,17.55
2022-12-03T04:28:54.074Z,19.52
2022-12-03T04:31:40.636Z,13.90
2022-12-03T04:34:26.674Z,22.50
2022-12-03T04:36:53.975Z,17.23
2022-12-03T04:39:21.612Z,16.63
2022-12-03T04:41:48.896Z,17.13
2022-12-03T04:44:36.294Z,15.65
2022-12-03T04:47:11.362Z,19.23
2022-12-03T04:49:40.113Z,16.10
2022-12-03T04:52:08.324Z,14.90
2022-12-03T04:54:36.242Z,15.68
2022-12-03T04:57:03.575Z,15.23
2022-12-03T04:59:33.590Z,13.63
2022-12-03T05:02:01.098Z,16.95
2022-12-03T05:04:28.372Z,13.68
2022-12-03T05:06:58.500Z,14.63
2022-12-03T05:09:25.754Z,17.75
2022-12-03T05:11:53.028Z,15.40
2022-12-03T05:14:22.057Z,14.95
2022-12-03T05:16:49.453Z,16.30
2022-12-03T05:19:16.782Z,16.55
2022-12-03T05:21:44.010Z,16.65
2022-12-03T05:24:11.286Z,15.82
2022-12-03T05:26:38.611Z,15.35
2022-12-03T05:29:05.885Z,15.98
2022-12-03T05:31:33.434Z,16.60
2022-12-03T05:34:00.778Z,14.88
2022-12-03T05:36:28.103Z,14.80
2022-12-03T05:39:13.830Z,20.08
2022-12-03T05:41:59.727Z,15.27
2022-12-03T05:44:27.034Z,12.30
2022-12-03T05:46:54.254Z,17.67
2022-12-03T05:49:21.486Z,13.60
2022-12-03T05:51:51.427Z,17.20
2022-12-03T05:54:21.020Z,14.25
2022-12-03T05:56:48.238Z,17.65
2022-12-03T05:59:15.499Z,18.33
2022-12-03T06:01:42.729Z,15.57
2022-12-03T06:04:10.019Z,14.52
2022-12-03T06:06:39.795Z,15.15
2022-12-03T06:09:07.011Z,16.40
2022-12-03T06:11:35.077Z,13.85
2022-12-03T06:14:02.315Z,18.75
2022-12-03T06:16:31.899Z,12.73
2022-12-03T06:18:59.438Z,20.50
2022-12-03T06:21:26.997Z,15.60
2022-12-03T06:23:54.414Z,17.40
2022-12-03T06:26:21.693Z,14.55
2022-12-03T06:28:49.341Z,16.20
2022-12-03T06:31:16.641Z,17.58
2022-12-03T06:33:44.005Z,18.08
2022-12-03T06:36:11.273Z,13.30
2022-12-03T06:38:38.556Z,15.32
2022-12-03T06:41:05.898Z,13.55
2022-12-03T06:43:35.224Z,15.70
2022-12-03T06:46:02.657Z,16.05
2022-12-03T06:48:30.027Z,15.23
2022-12-03T06:50:57.221Z,15.85
2022-12-03T06:53:25.422Z,12.13
2022-12-03T06:55:52.674Z,14.20
2022-12-03T06:58:19.891Z,15.20
2022-12-03T07:00:49.469Z,14.60
2022-12-03T07:03:16.855Z,18.98
2022-12-03T07:05:44.078Z,11.60
2022-12-03T07:08:11.395Z,11.18
2022-12-03T07:10:38.711Z,10.88
2022-12-03T07:13:05.923Z,12.25
2022-12-03T07:15:35.761Z,14.00
2022-12-03T07:18:02.991Z,12.38
2022-12-03T07:20:30.192Z,11.48
2022-12-03T07:22:57.721Z,10.77
2022-12-03T07:25:25.071Z,11.25
2022-12-03T07:27:52.307Z,15.18
2022-12-03T07:30:19.704Z,11.43
2022-12-03T07:32:47.110Z,11.93
2022-12-03T07:35:17.308Z,11.60
2022-12-03T07:37:44.533Z,12.02
2022-12-03T07:40:12.501Z,9.65
2022-12-03T07:42:39.782Z,11.68
2022-12-03T07:45:07.281Z,12.10
2022-12-03T07:47:40.566Z,14.15
2022-12-03T07:50:07.983Z,12.70
2022-12-03T07:52:35.238Z,12.73
2022-12-03T07:55:02.750Z,11.98
2022-12-03T07:57:30.081Z,13.30
2022-12-03T07:59:57.352Z,14.10
2022-12-03T08:02:24.748Z,11.48
2022-12-03T08:04:52.527Z,15.63
2022-12-03T08:07:21.303Z,14.68
2022-12-03T08:09:48.713Z,12.45
2022-12-03T08:12:22.768Z,13.98
2022-12-03T08:14:50.192Z,12.95
2022-12-03T08:17:18.513Z,12.63
2022-12-03T08:19:48.059Z,11.10
2022-12-03T08:22:16.379Z,12.65
2022-12-03T08:24:43.936Z,15.15
2022-12-03T08:27:17.203Z,10.85
2022-12-03T08:29:44.556Z,10.52
2022-12-03T08:32:12.272Z,10.25
2022-12-03T08:37:38.932Z,14.32
2022-12-03T08:40:20.377Z,13.60
2022-12-03T08:42:47.850Z,11.00
2022-12-03T08:45:21.317Z,12.80
2022-12-03T08:47:48.874Z,11.23
2022-12-03T08:50:27.403Z,19.50
2022-12-03T08:52:55.557Z,15.02
2022-12-03T08:55:36.471Z,11.02
2022-12-03T08:58:22.615Z,11.32
2022-12-03T09:00:55.887Z,12.60
2022-12-03T09:03:23.594Z,8.73
2022-12-03T09:05:51.047Z,15.73
2022-12-03T09:08:18.596Z,15.43
2022-12-03T09:10:46.255Z,10.65
2022-12-03T09:13:13.845Z,11.98
2022-12-03T09:15:41.295Z,10.80
2022-12-03T09:18:08.964Z,11.00
2022-12-03T09:20:36.423Z,12.07
2022-12-03T09:23:03.938Z,12.30
2022-12-03T09:25:31.354Z,11.20
2022-12-03T09:27:58.790Z,11.18
2022-12-03T09:30:26.247Z,11.10
2022-12-03T09:32:53.767Z,10.57
2022-12-03T09:35:21.244Z,12.32
2022-12-03T09:37:48.774Z,10.57
2022-12-03T09:40:16.351Z,11.65
2022-12-03T09:42:43.999Z,10.73
2022-12-03T09:45:12.691Z,11.65
2022-12-03T09:47:41.642Z,10.32
2022-12-03T09:50:13.250Z,11.48
2022-12-03T09:52:40.730Z,11.13
2022-12-03T09:55:19.336Z,8.55
2022-12-03T09:57:46.836Z,9.02
2022-12-03T10:00:18.862Z,9.82
2022-12-03T10:02:47.329Z,13.05
2022-12-03T10:05:15.495Z,10.27
2022-12-03T10:07:43.146Z,9.80
2022-12-03T10:10:37.040Z,11.15
2022-12-03T10:13:05.209Z,9.48
2022-12-03T10:15:32.955Z,8.95
2022-12-03T10:18:02.151Z,8.73
2022-12-03T10:20:29.643Z,7.95
2022-12-03T10:22:57.134Z,9.25
2022-12-03T10:25:24.758Z,6.95
2022-12-03T10:28:02.600Z,8.65
2022-12-03T10:30:30.189Z,7.75
2022-12-03T10:33:02.688Z,11.40
2022-12-03T10:35:41.167Z,7.80
2022-12-03T10:38:17.766Z,7.38
2022-12-03T10:40:45.786Z,12.05
2022-12-03T10:43:13.273Z,9.32
2022-12-03T10:45:41.062Z,9.52
2022-12-03T10:48:11.702Z,8.32
2022-12-03T10:50:46.836Z,8.02
2022-12-03T10:53:14.380Z,11.43
2022-12-03T10:55:43.217Z,11.27
2022-12-03T10:58:22.097Z,7.65
2022-12-03T11:00:50.737Z,8.77
2022-12-03T11:03:19.616Z,8.38
2022-12-03T11:05:47.185Z,8.07
2022-12-03T11:08:22.700Z,10.90
2022-12-03T11:11:00.463Z,8.68
2022-12-03T11:13:27.970Z,8.52
2022-12-03T11:15:55.619Z,9.10
2022-12-03T11:18:44.733Z,8.18
2022-12-03T11:21:13.640Z,8.30
2022-12-03T11:24:01.460Z,8.60
2022-12-03T11:26:38.246Z,8.05
2022-12-03T11:29:14.003Z,8.02
2022-12-03T11:31:46.543Z,9.02
2022-12-03T11:34:23.175Z,7.53
2022-12-03T11:37:09.357Z,7.60
2022-12-03T11:39:46.084Z,8.38
2022-12-03T11:42:25.364Z,19.33
2022-12-03T11:45:02.098Z,14.02
2022-12-03T11:47:41.958Z,12.63
2022-12-03T11:50:18.571Z,10.93
2022-12-03T11:52:46.879Z,10.60
2022-12-03T11:55:16.287Z,9.13
2022-12-03T11:57:43.785Z,11.55
2022-12-03T12:00:17.440Z,10.35
2022-12-03T12:02:45.045Z,11.02
2022-12-03T12:05:23.577Z,10.20
2022-12-03T12:07:51.186Z,9.95
2022-12-03T12:10:38.230Z,9.05
2022-12-03T12:13:05.920Z,11.63
2022-12-03T12:15:43.336Z,10.60
2022-12-03T12:18:29.763Z,12.93
2022-12-03T12:21:17.180Z,15.80
2022-12-03T12:23:45.100Z,10.75
2022-12-03T12:26:12.586Z,10.40
2022-12-03T12:28:40.075Z,9.02
2022-12-03T12:31:13.771Z,9.57
2022-12-03T12:33:41.362Z,11.02
2022-12-03T12:36:10.066Z,10.07
2022-12-03T12:38:37.524Z,10.50
2022-12-03T12:41:08.123Z,9.68
2022-12-03T12:43:36.088Z,8.15
2022-12-03T12:46:45.601Z,9.80
2022-12-03T12:48:59.836Z,8.65
2022-12-03T12:51:27.647Z,8.27
2022-12-03T12:53:55.171Z,8.80
2022-12-03T12:56:30.227Z,9.52
2022-12-03T12:58:59.369Z,8.85
2022-12-03T13:01:29.469Z,8.88
2022-12-03T13:03:57.592Z,8.90
2022-12-03T13:06:28.985Z,9.18
2022-12-03T13:08:57.016Z,9.48
2022-12-03T13:11:30.605Z,9.98
2022-12-03T13:13:58.076Z,8.38
2022-12-03T13:16:32.996Z,8.98
2022-12-03T13:19:01.458Z,7.68
2022-12-03T13:21:38.305Z,10.02
2022-12-03T13:24:24.339Z,10.82
2022-12-03T13:26:52.098Z,7.78
2022-12-03T13:29:20.453Z,7.65
2022-12-03T13:31:54.223Z,12.95
2022-12-03T13:34:22.890Z,11.98
2022-12-03T13:36:57.165Z,6.97
2022-12-03T13:39:37.499Z,9.63
2022-12-03T13:42:29.743Z,8.73
2022-12-03T13:47:24.894Z,7.93
2022-12-03T13:49:57.601Z,8.15
2022-12-03T13:52:26.024Z,8.70
2022-12-03T13:54:54.866Z,8.50
2022-12-03T13:57:22.683Z,8.65
2022-12-03T13:59:50.132Z,8.68
2022-12-03T14:02:17.603Z,9.65
2022-12-03T14:04:45.095Z,11.15
2022-12-03T14:07:12.581Z,7.65
2022-12-03T14:09:39.970Z,10.32
2022-12-03T14:12:25.956Z,12.75
2022-12-03T14:14:54.146Z,9.52
2022-12-03T14:17:21.678Z,8.35
2022-12-03T14:19:49.397Z,10.70
2022-12-03T14:22:18.728Z,10.43
2022-12-03T14:24:46.292Z,8.57
2022-12-03T14:27:13.754Z,8.88
2022-12-03T14:29:41.192Z,7.90
2022-12-03T14:32:08.708Z,9.98
2022-12-03T14:34:36.161Z,7.40
2022-12-03T14:37:03.709Z,9.23
2022-12-03T14:39:31.258Z,9.30
2022-12-03T14:42:14.274Z,11.05
2022-12-03T14:44:41.867Z,11.65
2022-12-03T14:47:09.825Z,14.40
2022-12-03T14:49:37.517Z,14.27
2022-12-03T14:52:08.516Z,11.40
2022-12-03T14:54:44.949Z,11.35
2022-12-03T14:57:13.560Z,13.13
2022-12-03T14:59:41.911Z,14.05
2022-12-03T15:02:09.759Z,12.18
2022-12-03T15:04:37.850Z,14.20
2022-12-03T15:07:05.683Z,12.93
2022-12-03T15:09:33.225Z,13.65
2022-12-03T15:12:00.843Z,13.48
2022-12-03T15:14:28.594Z,13.30
2022-12-03T15:16:56.183Z,22.80
2022-12-03T15:19:23.741Z,35.45
2022-12-03T15:21:51.207Z,31.75
2022-12-03T15:24:18.805Z,31.27
2022-12-03T15:26:46.255Z,29.45
2022-12-03T15:29:13.664Z,24.02
2022-12-03T15:31:41.304Z,22.13
2022-12-03T15:34:09.125Z,26.27
2022-12-03T15:36:36.629Z,23.90
2022-12-03T15:39:04.228Z,25.38
2022-12-03T15:41:31.922Z,24.45
2022-12-03T15:44:01.925Z,22.90
2022-12-03T15:46:31.359Z,18.83
2022-12-03T15:48:59.303Z,16.17
2022-12-03T15:51:26.949Z,17.13
2022-12-03T15:53:54.951Z,15.38
2022-12-03T15:56:22.655Z,14.77
2022-12-03T15:58:50.286Z,16.42
2022-12-03T16:01:18.604Z,14.25
2022-12-03T16:03:46.477Z,17.13
2022-12-03T16:06:15.005Z,18.90
2022-12-03T16:08:42.815Z,20.67
2022-12-03T16:11:10.507Z,21.73
2022-12-03T16:13:38.314Z,16.13
2022-12-03T16:16:06.102Z,16.88
2022-12-03T16:18:33.677Z,14.63
2022-12-03T16:21:01.069Z,17.05
2022-12-03T16:23:28.722Z,23.20
2022-12-03T16:25:56.234Z,18.65
2022-12-03T16:28:23.824Z,21.27
2022-12-03T16:30:51.339Z,20.98
2022-12-03T16:33:24.059Z,21.20
2022-12-03T16:35:54.802Z,19.90
2022-12-03T16:38:22.301Z,21.20
2022-12-03T16:40:49.873Z,22.55
2022-12-03T16:43:17.514Z,23.70
2022-12-03T16:46:01.808Z,25.40
2022-12-03T16:48:30.307Z,17.13
2022-12-03T16:50:57.887Z,21.88
2022-12-03T16:53:25.369Z,18.38
2022-12-03T16:55:52.808Z,17.42
2022-12-03T16:58:21.359Z,16.70
2022-12-03T17:00:49.263Z,16.13
2022-12-03T17:03:17.977Z,13.15
2022-12-03T17:05:46.167Z,18.80
2022-12-03T17:08:14.362Z,16.80
2022-12-03T17:10:42.118Z,12.40
2022-12-03T17:13:10.529Z,17.63
2022-12-03T17:15:39.043Z,18.77
2022-12-03T17:18:06.999Z,20.85
2022-12-03T17:20:36.102Z,21.55
2022-12-03T17:23:03.922Z,24.60
2022-12-03T17:25:31.479Z,26.80
2022-12-03T17:27:58.903Z,22.45
2022-12-03T17:30:26.313Z,19.23
2022-12-03T17:32:53.845Z,21.45
2022-12-03T17:35:21.342Z,21.20
2022-12-03T17:37:48.814Z,20.15
2022-12-03T17:40:18.134Z,21.50
2022-12-03T17:42:45.707Z,16.58
2022-12-03T17:45:13.474Z,16.63
2022-12-03T17:47:40.940Z,15.07
2022-12-03T17:50:08.786Z,14.48
2022-12-03T17:52:36.265Z,15.98
2022-12-03T17:55:15.652Z,18.83
2022-12-03T17:57:45.383Z,17.13
2022-12-03T18:00:13.296Z,14.88
2022-12-03T18:02:41.194Z,18.02
2022-12-03T18:05:08.843Z,15.52
2022-12-03T18:07:36.444Z,15.38
2022-12-03T18:10:04.010Z,17.40
2022-12-03T18:12:31.492Z,15.55
2022-12-03T18:14:58.926Z,18.95
2022-12-03T18:17:26.416Z,21.70
2022-12-03T18:19:54.101Z,21.73
2022-12-03T18:22:21.987Z,21.90
2022-12-03T18:24:51.872Z,18.95
2022-12-03T18:27:20.819Z,21.60
2022-12-03T18:29:48.337Z,21.05
2022-12-03T18:32:28.334Z,20.80
2022-12-03T18:34:57.358Z,18.10
2022-12-03T18:37:28.870Z,20.60
2022-12-03T18:39:57.749Z,23.35
2022-12-03T18:42:25.820Z,18.52
2022-12-03T18:44:55.020Z,16.38
2022-12-03T18:47:24.262Z,18.45
2022-12-03T18:49:52.094Z,19.42
2022-12-03T18:52:21.810Z,18.58
2022-12-03T18:54:49.916Z,16.05
2022-12-03T18:57:17.968Z,15.70
2022-12-03T18:59:45.433Z,13.10
2022-12-03T19:02:38.440Z,14.50
2022-12-03T19:05:02.769Z,14.55
2022-12-03T19:07:30.198Z,12.43
2022-12-03T19:09:57.798Z,14.02
2022-12-03T19:12:25.312Z,15.32
2022-12-03T19:14:52.896Z,14.32
2022-12-03T19:17:21.442Z,14.93
2022-12-03T19:19:49.159Z,15.55
2022-12-03T19:22:16.866Z,12.93
2022-12-03T19:24:44.505Z,16.17
2022-12-03T19:27:11.992Z,16.40
2022-12-03T19:29:39.696Z,17.50
2022-12-03T19:32:07.240Z,14.02
2022-12-03T19:34:34.770Z,18.35
2022-12-03T19:37:02.264Z,16.35
2022-12-03T19:39:29.720Z,18.25
2022-12-03T19:41:57.607Z,16.02
2022-12-03T19:44:25.128Z,17.85
2022-12-03T19:46:52.991Z,19.40
2022-12-03T19:49:23.583Z,17.73
2022-12-03T19:51:51.221Z,15.55
2022-12-03T19:54:18.762Z,18.65
2022-12-03T19:56:46.424Z,16.20
2022-12-03T19:59:14.406Z,18.17
2022-12-03T20:01:43.194Z,15.55
2022-12-03T20:04:12.171Z,21.67
2022-12-03T20:06:39.839Z,16.63
2022-12-03T20:09:09.062Z,20.40
2022-12-03T20:11:36.577Z,17.45
2022-12-03T20:14:06.222Z,18.60
2022-12-03T20:16:35.282Z,16.90
2022-12-03T20:19:04.644Z,17.83
2022-12-03T20:21:32.875Z,21.30
2022-12-03T20:24:00.819Z,21.13
2022-12-03T20:26:28.916Z,21.00
2022-12-03T20:28:59.491Z,25.95
2022-12-03T20:31:28.172Z,23.42
2022-12-03T20:33:56.892Z,22.40
2022-12-03T20:36:29.498Z,21.55
2022-12-03T20:39:00.598Z,23.15
2022-12-03T20:41:28.240Z,24.83
2022-12-03T20:43:56.023Z,18.85
2022-12-03T20:46:25.668Z,20.10
2022-12-03T20:48:56.692Z,26.27
2022-12-03T20:51:25.338Z,20.95
2022-12-03T20:53:53.037Z,21.00
2022-12-03T20:56:21.862Z,18.63
2022-12-03T20:58:50.171Z,33.97
2022-12-03T21:01:19.361Z,22.65
2022-12-03T21:03:47.306Z,20.50
2022-12-03T21:06:15.457Z,23.38
2022-12-03T21:08:43.272Z,26.17
2022-12-03T21:11:11.612Z,30.33
2022-12-03T21:13:41.594Z,25.70
2022-12-03T21:16:10.058Z,24.50
2022-12-03T21:18:37.801Z,28.48
2022-12-03T21:21:06.040Z,22.02
2022-12-03T21:23:34.321Z,17.75
2022-12-03T21:26:02.908Z,20.85
2022-12-03T21:28:30.519Z,21.20
2022-12-03T21:31:02.343Z,21.65
2022-12-03T21:33:30.727Z,23.00
2022-12-03T21:35:58.666Z,21.67
2022-12-03T21:38:27.019Z,19.77
2022-12-03T21:40:54.865Z,20.23
2022-12-03T21:43:22.847Z,22.52
2022-12-03T21:45:50.386Z,24.55
2022-12-03T21:48:18.251Z,15.70
2022-12-03T21:50:46.137Z,20.17
2022-12-03T21:53:13.647Z,14.57
2022-12-03T21:55:41.649Z,26.25
2022-12-03T21:58:09.384Z,16.20
2022-12-03T22:00:37.119Z,19.38
2022-12-03T22:03:04.745Z,21.85
2022-12-03T22:05:32.618Z,21.38
2022-12-03T22:08:00.192Z,21.67
2022-12-03T22:10:27.706Z,20.02
2022-12-03T22:12:55.193Z,13.75
2022-12-03T22:15:22.672Z,17.58
2022-12-03T22:17:50.173Z,20.23
2022-12-03T22:20:17.680Z,19.27
2022-12-03T22:22:45.323Z,14.88
2022-12-03T22:25:12.719Z,13.55
2022-12-03T22:27:41.165Z,16.35
2022-12-03T22:30:09.194Z,19.38
2022-12-03T22:32:36.686Z,20.20
2022-12-03T22:35:04.189Z,20.15
2022-12-03T22:37:32.790Z,15.02
2022-12-03T22:40:00.295Z,19.40
2022-12-03T22:42:27.749Z,17.30
2022-12-03T22:44:55.276Z,15.90
2022-12-03T22:47:22.740Z,17.33
2022-12-03T22:49:50.215Z,15.20
2022-12-03T22:52:17.701Z,14.98
2022-12-03T22:54:45.818Z,13.57
2022-12-03T22:57:13.386Z,14.60
2022-12-03T22:59:40.876Z,16.88
2022-12-03T23:02:08.653Z,15.38
2022-12-03T23:04:36.114Z,18.70
2022-12-03T23:07:03.599Z,20.40
2022-12-03T23:09:31.027Z,22.95
2022-12-03T23:11:58.391Z,13.82
2022-12-03T23:14:25.851Z,18.52
2022-12-03T23:16:53.392Z,14.52
2022-12-03T23:19:21.043Z,21.45
2022-12-03T23:21:48.531Z,30.05
2022-12-03T23:24:15.966Z,13.68
2022-12-03T23:26:43.409Z,15.13
2022-12-03T23:29:10.825Z,20.55
2022-12-03T23:31:38.410Z,14.27
2022-12-03T23:34:06.034Z,19.15
2022-12-03T23:36:34.182Z,19.92
2022-12-03T23:39:01.725Z,13.85
2022-12-03T23:41:29.339Z,22.52
2022-12-03T23:43:57.536Z,17.13
2022-12-03T23:46:27.306Z,12.57
2022-12-03T23:48:55.509Z,11.60
2022-12-03T23:51:24.603Z,19.98
2022-12-03T23:53:53.173Z,14.98
2022-12-03T23:56:28.332Z,17.63
2022-12-03T23:58:56.077Z,17.25
